Time;durP1;ratioP1;P1;durP2;ratioP2;P2;SDS_P1;SDS_P2;PMS_P1;PMS_P2;Temp;Humidity;BMP_temperature;BMP_pressure;BME280_temperature;BME280_humidity;BME280_pressure;Samples;Min_cycle;Max_cycle;Signal;HPM_P1;HPM_P2
2022/01/14 00:01:26;;;;;;;20.75;9.77;;;;;;;;;;4914575;29;20020;-88
2022/01/14 00:03:51;;;;;;;23.63;9.57;;;;;;;;;;4937842;23;20088;-78
2022/01/14 00:06:16;;;;;;;23.17;10.27;;;;;;;;;;4916535;29;20028;-78
2022/01/14 00:08:42;;;;;;;22.98;8.93;;;;;;;;;;4901878;29;20024;-77
2022/01/14 00:11:14;;;;;;;21.63;9.98;;;;;;;;;;4917769;29;20537;-76
2022/01/14 00:13:50;;;;;;;20.02;9.32;;;;;;;;;;4918123;29;20469;-76
2022/01/14 00:16:16;;;;;;;22.05;9.82;;;;;;;;;;4917248;29;20051;-77
2022/01/14 00:18:41;;;;;;;21.20;8.90;;;;;;;;;;4898957;29;20059;-77
2022/01/14 00:21:06;;;;;;;23.58;10.05;;;;;;;;;;4898505;29;20035;-75
2022/01/14 00:23:36;;;;;;;23.55;10.07;;;;;;;;;;4915480;29;20103;-75
2022/01/14 00:34:13;;;;;;;21.80;9.95;;;;;;;;;;4927055;29;20088;-76
2022/01/14 00:36:39;;;;;;;20.42;9.35;;;;;;;;;;4927021;29;20016;-76
2022/01/14 00:39:05;;;;;;;17.52;8.65;;;;;;;;;;4925629;29;20113;-76
2022/01/14 00:41:30;;;;;;;21.08;9.98;;;;;;;;;;4926637;29;20035;-77
2022/01/14 00:44:01;;;;;;;24.63;10.90;;;;;;;;;;4906732;29;20111;-77
2022/01/14 00:46:26;;;;;;;24.92;11.25;;;;;;;;;;4923463;29;20478;-77
2022/01/14 00:48:51;;;;;;;19.98;8.90;;;;;;;;;;4906086;29;20072;-76
2022/01/14 00:51:17;;;;;;;23.13;9.80;;;;;;;;;;4923302;29;20028;-75
2022/01/14 00:53:42;;;;;;;19.85;8.93;;;;;;;;;;4922979;29;20024;-77
2022/01/14 00:56:20;;;;;;;21.77;10.10;;;;;;;;;;4907698;29;20039;-76
2022/01/14 01:01:30;;;;;;;21.58;9.75;;;;;;;;;;4924692;29;20031;-77
2022/01/14 01:03:55;;;;;;;21.52;9.60;;;;;;;;;;4921380;29;20032;-77
2022/01/14 01:06:20;;;;;;;20.40;9.65;;;;;;;;;;4921671;29;20028;-77
2022/01/14 01:08:48;;;;;;;19.90;9.82;;;;;;;;;;4922837;29;20076;-77
2022/01/14 01:11:13;;;;;;;20.70;9.48;;;;;;;;;;4922671;29;20028;-77
2022/01/14 01:13:46;;;;;;;19.35;9.63;;;;;;;;;;4922866;29;20020;-77
2022/01/14 01:16:11;;;;;;;21.55;9.90;;;;;;;;;;4920570;29;20028;-75
2022/01/14 01:18:36;;;;;;;20.30;10.75;;;;;;;;;;4921333;29;20043;-76
2022/01/14 01:21:02;;;;;;;18.65;9.35;;;;;;;;;;4920429;29;20088;-76
2022/01/14 01:23:27;;;;;;;25.83;11.20;;;;;;;;;;4920545;29;20425;-76
2022/01/14 01:26:00;;;;;;;22.27;10.45;;;;;;;;;;4902365;29;20044;-75
2022/01/14 01:28:28;;;;;;;20.75;10.20;;;;;;;;;;4919444;29;20385;-76
2022/01/14 01:33:24;;;;;;;25.08;10.15;;;;;;;;;;4918361;29;20462;-76
2022/01/14 01:35:49;;;;;;;21.88;9.73;;;;;;;;;;4918118;29;20031;-75
2022/01/14 01:38:16;;;;;;;22.65;9.75;;;;;;;;;;4917211;29;20027;-77
2022/01/14 01:40:43;;;;;;;19.88;9.68;;;;;;;;;;4917781;29;20028;-76
2022/01/14 01:43:10;;;;;;;21.85;9.73;;;;;;;;;;4900741;29;20035;-76
2022/01/14 01:45:35;;;;;;;21.77;8.95;;;;;;;;;;4900805;29;20032;-78
2022/01/14 01:48:00;;;;;;;24.48;10.73;;;;;;;;;;4917900;29;20095;-75
2022/01/14 01:50:26;;;;;;;18.50;9.30;;;;;;;;;;4918132;29;20024;-77
2022/01/14 01:52:52;;;;;;;25.05;9.85;;;;;;;;;;4917665;29;20080;-77
2022/01/14 01:55:17;;;;;;;22.08;10.30;;;;;;;;;;4917989;29;20024;-77
2022/01/14 01:57:43;;;;;;;24.58;10.63;;;;;;;;;;4901202;29;20046;-76
2022/01/14 02:00:10;;;;;;;22.27;10.38;;;;;;;;;;4919046;29;20059;-77
2022/01/14 02:02:35;;;;;;;22.75;10.15;;;;;;;;;;4919432;29;20032;-76
2022/01/14 02:05:01;;;;;;;23.13;10.68;;;;;;;;;;4900252;29;20042;-76
2022/01/14 02:07:26;;;;;;;24.25;11.23;;;;;;;;;;4916460;29;20024;-75
2022/01/14 02:09:51;;;;;;;25.50;10.70;;;;;;;;;;4898648;29;20466;-76
2022/01/14 02:12:19;;;;;;;27.92;12.25;;;;;;;;;;4917087;29;20020;-76
2022/01/14 02:15:09;;;;;;;29.52;12.27;;;;;;;;;;4917208;29;20426;-75
2022/01/14 02:17:52;;;;;;;26.05;11.75;;;;;;;;;;4919630;29;20387;-76
2022/01/14 02:23:04;;;;;;;22.92;10.50;;;;;;;;;;4916946;29;20035;-77
2022/01/14 02:25:29;;;;;;;22.80;10.75;;;;;;;;;;4899939;29;20621;-77
2022/01/14 02:28:02;;;;;;;21.70;10.93;;;;;;;;;;4916977;29;20020;-77
2022/01/14 02:30:29;;;;;;;24.75;10.25;;;;;;;;;;4917059;29;20051;-76
2022/01/14 02:32:54;;;;;;;24.85;11.07;;;;;;;;;;4916679;29;20538;-77
2022/01/14 02:35:19;;;;;;;23.08;10.25;;;;;;;;;;4916657;29;20052;-77
2022/01/14 02:37:44;;;;;;;24.63;10.75;;;;;;;;;;4916835;29;20039;-77
2022/01/14 02:40:10;;;;;;;26.23;11.68;;;;;;;;;;4917177;29;20115;-76
2022/01/14 02:42:35;;;;;;;28.00;12.60;;;;;;;;;;4916755;29;20040;-77
2022/01/14 02:45:05;;;;;;;29.65;12.48;;;;;;;;;;4916624;29;20024;-77
2022/01/14 02:47:33;;;;;;;23.58;10.65;;;;;;;;;;4922176;29;20052;-77
2022/01/14 02:49:59;;;;;;;25.13;11.20;;;;;;;;;;4925171;29;20020;-76
2022/01/14 02:55:31;;;;;;;24.00;10.35;;;;;;;;;;4897161;29;20025;-77
2022/01/14 02:57:57;;;;;;;24.73;11.63;;;;;;;;;;4896219;29;20028;-76
2022/01/14 03:00:28;;;;;;;27.15;11.30;;;;;;;;;;4917844;29;20099;-78
2022/01/14 03:02:53;;;;;;;31.83;11.82;;;;;;;;;;4916631;29;20511;-76
2022/01/14 03:05:19;;;;;;;30.35;12.45;;;;;;;;;;4916448;29;20028;-78
2022/01/14 03:07:45;;;;;;;29.95;12.13;;;;;;;;;;4917657;29;20474;-76
2022/01/14 03:10:11;;;;;;;28.02;13.52;;;;;;;;;;4918190;29;20032;-76
2022/01/14 03:12:37;;;;;;;29.55;12.35;;;;;;;;;;4916304;29;20048;-77
2022/01/14 03:15:03;;;;;;;25.88;11.80;;;;;;;;;;4899711;29;20508;-77
2022/01/14 03:17:29;;;;;;;25.15;12.63;;;;;;;;;;4917881;29;20504;-77
2022/01/14 03:19:54;;;;;;;27.38;12.18;;;;;;;;;;4919752;29;20017;-76
2022/01/14 03:22:26;;;;;;;29.75;13.15;;;;;;;;;;4917126;29;20035;-76
2022/01/14 03:27:17;;;;;;;32.20;12.52;;;;;;;;;;4916526;29;20021;-76
2022/01/14 03:29:42;;;;;;;27.88;12.60;;;;;;;;;;4916669;29;20016;-75
2022/01/14 03:32:07;;;;;;;25.45;12.00;;;;;;;;;;4899417;29;20032;-77
2022/01/14 03:34:33;;;;;;;32.67;13.98;;;;;;;;;;4916300;29;20108;-78
2022/01/14 03:36:58;;;;;;;26.33;11.15;;;;;;;;;;4916704;29;20032;-76
2022/01/14 03:39:24;;;;;;;28.02;11.57;;;;;;;;;;4899715;29;20111;-77
2022/01/14 03:41:49;;;;;;;31.98;12.20;;;;;;;;;;4916560;29;20085;-76
2022/01/14 03:44:15;;;;;;;28.63;12.02;;;;;;;;;;4916711;29;20032;-76
2022/01/14 03:46:40;;;;;;;24.30;12.40;;;;;;;;;;4916215;29;20044;-77
2022/01/14 03:49:05;;;;;;;30.63;13.13;;;;;;;;;;4916477;29;20067;-77
2022/01/14 03:51:30;;;;;;;25.52;12.18;;;;;;;;;;4899453;29;20016;-77
2022/01/14 03:53:56;;;;;;;28.50;13.02;;;;;;;;;;4916593;29;20095;-77
2022/01/14 03:56:23;;;;;;;31.20;13.07;;;;;;;;;;4916712;29;20103;-77
2022/01/14 03:58:48;;;;;;;33.70;13.20;;;;;;;;;;4916858;29;20024;-77
2022/01/14 04:01:13;;;;;;;27.77;11.70;;;;;;;;;;4916632;29;20029;-77
2022/01/14 04:03:40;;;;;;;29.58;12.55;;;;;;;;;;4920738;29;20028;-76
2022/01/14 04:06:06;;;;;;;29.73;11.18;;;;;;;;;;4920497;29;20111;-75
2022/01/14 04:08:31;;;;;;;29.65;11.95;;;;;;;;;;4903629;29;20450;-77
2022/01/14 04:10:58;;;;;;;30.88;12.98;;;;;;;;;;4920497;29;20044;-76
2022/01/14 04:13:38;;;;;;;25.88;11.13;;;;;;;;;;4920430;29;20080;-76
2022/01/14 04:16:04;;;;;;;31.27;13.60;;;;;;;;;;4905019;29;20429;-77
2022/01/14 04:18:29;;;;;;;27.13;11.13;;;;;;;;;;4923535;29;20020;-77
2022/01/14 04:20:54;;;;;;;22.98;10.68;;;;;;;;;;4923622;29;20024;-76
2022/01/14 04:23:23;;;;;;;27.67;12.05;;;;;;;;;;4904750;29;20028;-76
2022/01/14 04:25:51;;;;;;;29.58;12.40;;;;;;;;;;4920834;29;20020;-77
2022/01/14 04:28:18;;;;;;;35.50;12.60;;;;;;;;;;4904577;29;20111;-76
2022/01/14 04:30:43;;;;;;;28.17;12.07;;;;;;;;;;4921471;29;20082;-76
2022/01/14 04:33:08;;;;;;;27.40;11.82;;;;;;;;;;4921197;29;20482;-77
2022/01/14 04:35:33;;;;;;;29.58;12.50;;;;;;;;;;4921364;29;20505;-76
2022/01/14 04:37:58;;;;;;;27.10;11.82;;;;;;;;;;4904057;29;20087;-76
2022/01/14 04:40:24;;;;;;;32.70;13.25;;;;;;;;;;4904075;29;20375;-75
2022/01/14 04:42:51;;;;;;;28.70;11.27;;;;;;;;;;4920937;29;20397;-76
2022/01/14 04:45:39;;;;;;;26.42;11.77;;;;;;;;;;4922983;29;20070;-75
2022/01/14 04:48:05;;;;;;;30.48;12.20;;;;;;;;;;4922738;29;20028;-76
2022/01/14 04:50:31;;;;;;;26.10;11.63;;;;;;;;;;4923589;29;20036;-76
2022/01/14 04:52:56;;;;;;;28.60;12.68;;;;;;;;;;4923709;29;20103;-75
2022/01/14 04:55:22;;;;;;;24.38;10.93;;;;;;;;;;4923553;29;20077;-75
2022/01/14 04:57:47;;;;;;;27.05;12.07;;;;;;;;;;4922424;29;20032;-76
2022/01/14 05:00:15;;;;;;;30.75;12.90;;;;;;;;;;4922855;29;20034;-76
2022/01/14 05:02:40;;;;;;;27.48;12.68;;;;;;;;;;4925493;29;20035;-76
2022/01/14 05:05:07;;;;;;;29.17;12.65;;;;;;;;;;4925564;29;20039;-76
2022/01/14 05:07:32;;;;;;;31.65;13.02;;;;;;;;;;4925492;29;20442;-76
2022/01/14 05:10:16;;;;;;;31.17;14.38;;;;;;;;;;4926773;29;20036;-74
2022/01/14 05:12:41;;;;;;;33.30;12.63;;;;;;;;;;4923673;29;20035;-75
2022/01/14 05:15:07;;;;;;;31.55;15.00;;;;;;;;;;4924994;29;20032;-75
2022/01/14 05:17:33;;;;;;;29.42;13.63;;;;;;;;;;4925567;29;20028;-74
2022/01/14 05:19:58;;;;;;;29.50;12.65;;;;;;;;;;4924294;29;20035;-75
2022/01/14 05:22:26;;;;;;;28.42;12.00;;;;;;;;;;4922707;29;20031;-75
2022/01/14 05:24:52;;;;;;;30.63;12.07;;;;;;;;;;4922329;29;20028;-76
2022/01/14 05:27:17;;;;;;;32.45;13.00;;;;;;;;;;4905737;29;20024;-76
2022/01/14 05:29:42;;;;;;;24.38;11.80;;;;;;;;;;4922594;29;20016;-77
2022/01/14 05:32:12;;;;;;;27.55;11.73;;;;;;;;;;4923890;29;20032;-76
2022/01/14 05:34:38;;;;;;;33.83;12.65;;;;;;;;;;4921772;29;20020;-77
2022/01/14 05:37:04;;;;;;;30.70;13.15;;;;;;;;;;4906131;29;20024;-76
2022/01/14 05:39:29;;;;;;;33.63;14.25;;;;;;;;;;4905613;29;20023;-76
2022/01/14 05:41:55;;;;;;;27.52;12.52;;;;;;;;;;4921448;29;20470;-79
2022/01/14 05:44:23;;;;;;;29.80;11.13;;;;;;;;;;4921878;29;20031;-75
2022/01/14 05:46:49;;;;;;;29.30;11.95;;;;;;;;;;4904870;29;20466;-75
2022/01/14 05:49:14;;;;;;;28.98;12.48;;;;;;;;;;4921820;29;20031;-75
2022/01/14 05:51:39;;;;;;;28.45;11.90;;;;;;;;;;4921828;29;20044;-75
2022/01/14 05:54:04;;;;;;;30.40;12.32;;;;;;;;;;4919243;29;20044;-75
2022/01/14 05:56:30;;;;;;;26.90;11.35;;;;;;;;;;4917842;29;20028;-76
2022/01/14 05:58:55;;;;;;;29.27;12.63;;;;;;;;;;4918935;29;20032;-76
2022/01/14 06:01:21;;;;;;;29.35;11.70;;;;;;;;;;4920199;29;20185;-76
2022/01/14 06:03:46;;;;;;;29.42;12.18;;;;;;;;;;4937504;23;20036;-75
2022/01/14 06:06:11;;;;;;;26.35;11.88;;;;;;;;;;4921876;29;20043;-75
2022/01/14 06:08:36;;;;;;;26.70;12.25;;;;;;;;;;4908959;29;20020;-75
2022/01/14 06:11:02;;;;;;;30.02;12.23;;;;;;;;;;4918722;29;20024;-75
2022/01/14 06:13:27;;;;;;;29.23;12.63;;;;;;;;;;4930859;29;20119;-75
2022/01/14 06:15:52;;;;;;;28.33;12.00;;;;;;;;;;4922610;29;20521;-76
2022/01/14 06:18:18;;;;;;;32.38;13.13;;;;;;;;;;4919193;29;20031;-77
2022/01/14 06:20:43;;;;;;;28.13;11.60;;;;;;;;;;4901830;29;20020;-75
2022/01/14 06:23:08;;;;;;;26.02;11.63;;;;;;;;;;4919643;29;20024;-76
2022/01/14 06:25:33;;;;;;;27.42;12.35;;;;;;;;;;4918477;29;20028;-76
2022/01/14 06:27:58;;;;;;;28.45;12.55;;;;;;;;;;4919161;29;20024;-76
2022/01/14 06:30:24;;;;;;;34.35;12.80;;;;;;;;;;4919568;29;20016;-75
2022/01/14 06:32:53;;;;;;;27.33;12.13;;;;;;;;;;4919349;29;20026;-76
2022/01/14 06:35:18;;;;;;;28.23;13.27;;;;;;;;;;4919018;29;20072;-76
2022/01/14 06:37:43;;;;;;;27.67;13.18;;;;;;;;;;4902189;29;20028;-75
2022/01/14 06:40:09;;;;;;;29.20;12.55;;;;;;;;;;4903591;29;20073;-76
2022/01/14 06:42:34;;;;;;;30.75;11.95;;;;;;;;;;4919872;29;20051;-75
2022/01/14 06:44:59;;;;;;;32.47;11.63;;;;;;;;;;4918689;29;20048;-76
2022/01/14 06:47:25;;;;;;;31.58;12.65;;;;;;;;;;4902776;29;20564;-76
2022/01/14 06:49:50;;;;;;;29.38;12.45;;;;;;;;;;4902856;29;20020;-75
2022/01/14 06:52:15;;;;;;;32.17;12.75;;;;;;;;;;4920420;29;20031;-76
2022/01/14 06:54:41;;;;;;;32.63;13.52;;;;;;;;;;4918025;29;20103;-76
2022/01/14 06:57:06;;;;;;;32.95;12.40;;;;;;;;;;4917802;29;20059;-75
2022/01/14 06:59:31;;;;;;;29.08;12.80;;;;;;;;;;4917735;29;20726;-75
2022/01/14 07:01:56;;;;;;;34.47;12.90;;;;;;;;;;4917434;29;20474;-75
2022/01/14 07:04:22;;;;;;;31.35;13.07;;;;;;;;;;4917582;29;20083;-76
2022/01/14 07:06:47;;;;;;;30.25;13.38;;;;;;;;;;4917615;29;20020;-75
2022/01/14 07:09:12;;;;;;;31.75;14.05;;;;;;;;;;4918514;29;20012;-76
2022/01/14 07:11:38;;;;;;;35.65;12.82;;;;;;;;;;4918190;29;20506;-76
2022/01/14 07:14:04;;;;;;;30.27;13.48;;;;;;;;;;4917897;29;20020;-75
2022/01/14 07:16:30;;;;;;;33.60;13.75;;;;;;;;;;4916692;29;20609;-76
2022/01/14 07:18:55;;;;;;;29.45;12.85;;;;;;;;;;4916740;29;20039;-76
2022/01/14 07:21:20;;;;;;;32.38;13.38;;;;;;;;;;4916442;29;20047;-76
2022/01/14 07:23:45;;;;;;;33.35;14.15;;;;;;;;;;4917131;29;20091;-75
2022/01/14 07:26:10;;;;;;;41.13;14.77;;;;;;;;;;4899950;29;20031;-76
2022/01/14 07:28:35;;;;;;;41.90;15.70;;;;;;;;;;4899455;29;20020;-76
2022/01/14 07:31:01;;;;;;;33.55;12.60;;;;;;;;;;4916383;29;20025;-75
2022/01/14 07:33:26;;;;;;;42.15;16.15;;;;;;;;;;4916015;29;20534;-75
2022/01/14 07:35:51;;;;;;;31.15;12.88;;;;;;;;;;4899462;29;20076;-76
2022/01/14 07:38:16;;;;;;;34.47;15.00;;;;;;;;;;4919701;29;20493;-76
2022/01/14 07:40:42;;;;;;;36.72;14.45;;;;;;;;;;4920354;29;20063;-76
2022/01/14 07:43:07;;;;;;;35.85;14.35;;;;;;;;;;4920306;29;20217;-76
2022/01/14 07:45:32;;;;;;;32.67;13.27;;;;;;;;;;4902619;29;20028;-76
2022/01/14 07:47:57;;;;;;;31.25;14.50;;;;;;;;;;4919623;29;20024;-76
2022/01/14 07:50:23;;;;;;;38.65;14.80;;;;;;;;;;4919715;29;20151;-76
2022/01/14 07:52:48;;;;;;;36.60;14.90;;;;;;;;;;4902641;29;20393;-76
2022/01/14 07:55:13;;;;;;;35.08;14.63;;;;;;;;;;4902607;29;20028;-76
2022/01/14 07:57:38;;;;;;;40.30;15.80;;;;;;;;;;4919746;29;20031;-76
2022/01/14 08:00:07;;;;;;;36.28;15.20;;;;;;;;;;4919728;29;20031;-75
2022/01/14 08:02:33;;;;;;;34.45;13.23;;;;;;;;;;4919257;29;20028;-75
2022/01/14 08:04:58;;;;;;;36.60;14.13;;;;;;;;;;4919008;29;20580;-75
2022/01/14 08:07:25;;;;;;;32.30;13.38;;;;;;;;;;4902434;29;20035;-75
2022/01/14 08:09:50;;;;;;;40.38;14.80;;;;;;;;;;4919079;29;20052;-76
2022/01/14 08:12:16;;;;;;;40.78;15.52;;;;;;;;;;4901884;29;20035;-76
2022/01/14 08:14:41;;;;;;;38.08;16.13;;;;;;;;;;4919327;29;20027;-75
2022/01/14 08:17:07;;;;;;;36.35;14.68;;;;;;;;;;4902139;29;20020;-75
2022/01/14 08:19:33;;;;;;;37.75;14.77;;;;;;;;;;4919202;29;20389;-75
2022/01/14 08:22:02;;;;;;;35.47;14.68;;;;;;;;;;4902384;29;20020;-76
2022/01/14 08:24:27;;;;;;;;;;;;;;;;;;4919942;29;20485;-76
2022/01/14 08:26:52;;;;;;;32.95;14.25;;;;;;;;;;4919768;29;19910;-75
2022/01/14 08:29:17;;;;;;;35.83;16.48;;;;;;;;;;4919069;29;20035;-76
2022/01/14 08:31:43;;;;;;;38.63;15.02;;;;;;;;;;4918803;29;20024;-75
2022/01/14 08:34:08;;;;;;;32.60;14.45;;;;;;;;;;4918938;29;20385;-75
2022/01/14 08:36:33;;;;;;;40.28;16.10;;;;;;;;;;4919459;29;20020;-77
2022/01/14 08:38:59;;;;;;;33.50;14.88;;;;;;;;;;4918721;29;20032;-76
2022/01/14 08:41:28;;;;;;;40.75;14.85;;;;;;;;;;4918883;29;20024;-76
2022/01/14 08:43:54;;;;;;;42.58;15.48;;;;;;;;;;4918925;29;20046;-76
2022/01/14 08:46:19;;;;;;;41.40;15.90;;;;;;;;;;4919037;29;20478;-76
2022/01/14 08:48:44;;;;;;;37.03;15.35;;;;;;;;;;4900976;29;20057;-76
2022/01/14 08:51:09;;;;;;;41.38;16.40;;;;;;;;;;4918244;29;20111;-75
2022/01/14 08:53:34;;;;;;;40.25;15.73;;;;;;;;;;4918353;29;20022;-76
2022/01/14 08:56:00;;;;;;;40.80;15.90;;;;;;;;;;4918410;29;20020;-76
2022/01/14 08:58:25;;;;;;;38.50;15.75;;;;;;;;;;4901380;29;20087;-76
2022/01/14 09:00:51;;;;;;;40.10;16.52;;;;;;;;;;4918164;29;20027;-76
2022/01/14 09:03:16;;;;;;;37.88;15.98;;;;;;;;;;4901237;29;20094;-75
2022/01/14 09:05:41;;;;;;;39.42;16.80;;;;;;;;;;4917844;29;20028;-76
2022/01/14 09:08:07;;;;;;;36.03;16.73;;;;;;;;;;4918405;29;20013;-76
2022/01/14 09:10:32;;;;;;;34.50;14.95;;;;;;;;;;4918095;29;20027;-75
2022/01/14 09:12:57;;;;;;;32.80;15.02;;;;;;;;;;4917929;29;20039;-75
2022/01/14 09:15:22;;;;;;;36.47;15.18;;;;;;;;;;4918220;29;20046;-76
2022/01/14 09:17:48;;;;;;;32.90;14.43;;;;;;;;;;4901474;29;20393;-75
2022/01/14 09:20:13;;;;;;;35.95;14.98;;;;;;;;;;4901420;29;20020;-76
2022/01/14 09:22:40;;;;;;;37.75;16.30;;;;;;;;;;4918578;29;20358;-76
2022/01/14 09:25:06;;;;;;;32.42;15.65;;;;;;;;;;4918414;29;20083;-75
2022/01/14 09:27:33;;;;;;;36.75;16.65;;;;;;;;;;4901406;29;20035;-75
2022/01/14 09:29:59;;;;;;;35.78;15.57;;;;;;;;;;4901410;29;20032;-75
2022/01/14 09:32:25;;;;;;;44.00;16.52;;;;;;;;;;4917638;29;20020;-75
2022/01/14 09:34:50;;;;;;;35.60;15.25;;;;;;;;;;4900615;29;20437;-75
2022/01/14 09:37:15;;;;;;;33.10;15.32;;;;;;;;;;4901356;29;20020;-75
2022/01/14 09:39:43;;;;;;;39.22;16.17;;;;;;;;;;4917881;29;20453;-75
2022/01/14 09:42:08;;;;;;;41.13;16.67;;;;;;;;;;4917847;29;20024;-75
2022/01/14 09:44:34;;;;;;;39.35;17.08;;;;;;;;;;4917473;29;20028;-75
2022/01/14 09:46:59;;;;;;;38.67;15.13;;;;;;;;;;4917566;29;20075;-75
2022/01/14 09:49:24;;;;;;;36.20;16.02;;;;;;;;;;4917662;29;20029;-75
2022/01/14 09:51:49;;;;;;;40.45;16.95;;;;;;;;;;4917255;29;20043;-75
2022/01/14 09:54:15;;;;;;;33.63;15.23;;;;;;;;;;4917196;29;20435;-75
2022/01/14 09:56:41;;;;;;;40.88;17.25;;;;;;;;;;4900263;29;20024;-75
2022/01/14 09:59:07;;;;;;;35.72;15.50;;;;;;;;;;4916738;29;20486;-75
2022/01/14 10:01:42;;;;;;;39.22;15.48;;;;;;;;;;4917044;29;20030;-75
2022/01/14 10:04:12;;;;;;;35.25;15.07;;;;;;;;;;4900829;29;20446;-74
2022/01/14 10:06:47;;;;;;;40.63;16.85;;;;;;;;;;4918215;29;20051;-75
2022/01/14 10:09:22;;;;;;;32.60;15.73;;;;;;;;;;4900355;29;20034;-75
2022/01/14 10:12:05;;;;;;;35.38;15.88;;;;;;;;;;4917300;29;20107;-75
2022/01/14 10:14:31;;;;;;;40.75;15.50;;;;;;;;;;4900444;29;20060;-75
2022/01/14 10:16:58;;;;;;;41.63;15.75;;;;;;;;;;4917583;29;20059;-77
2022/01/14 10:19:24;;;;;;;38.75;14.65;;;;;;;;;;4917330;29;20021;-74
2022/01/14 10:21:50;;;;;;;35.50;14.60;;;;;;;;;;4918101;29;20032;-74
2022/01/14 10:24:15;;;;;;;34.92;14.85;;;;;;;;;;4900190;29;20123;-74
2022/01/14 10:26:48;;;;;;;32.60;14.38;;;;;;;;;;4916912;29;20106;-74
2022/01/14 10:29:13;;;;;;;33.30;14.23;;;;;;;;;;4900348;29;20087;-74
2022/01/14 10:31:39;;;;;;;38.35;14.77;;;;;;;;;;4916671;29;20465;-74
2022/01/14 10:34:14;;;;;;;35.08;15.90;;;;;;;;;;4916629;29;20024;-74
2022/01/14 10:36:42;;;;;;;31.92;13.95;;;;;;;;;;4916623;29;20024;-74
2022/01/14 10:39:20;;;;;;;36.60;15.57;;;;;;;;;;4900632;29;20506;-75
2022/01/14 10:41:45;;;;;;;31.23;13.73;;;;;;;;;;4917756;29;20482;-74
2022/01/14 10:44:29;;;;;;;34.40;14.25;;;;;;;;;;4918132;29;20034;-74
2022/01/14 10:47:10;;;;;;;32.63;14.02;;;;;;;;;;4917918;29;20076;-74
2022/01/14 10:49:37;;;;;;;43.70;16.63;;;;;;;;;;4899390;29;20080;-74
2022/01/14 10:52:19;;;;;;;37.50;15.55;;;;;;;;;;4898822;29;20028;-74
2022/01/14 10:54:49;;;;;;;36.17;16.80;;;;;;;;;;4916185;29;20024;-74
2022/01/14 10:57:17;;;;;;;39.03;18.38;;;;;;;;;;4916368;29;20063;-74
2022/01/14 10:59:43;;;;;;;42.38;18.60;;;;;;;;;;4916046;29;20020;-74
2022/01/14 11:02:26;;;;;;;46.25;19.85;;;;;;;;;;4916035;29;20123;-74
2022/01/14 11:05:02;;;;;;;41.90;18.75;;;;;;;;;;4916022;29;20500;-75
2022/01/14 11:07:28;;;;;;;42.35;19.95;;;;;;;;;;4916287;29;20020;-74
2022/01/14 11:09:57;;;;;;;44.75;20.20;;;;;;;;;;4915750;29;20020;-74
2022/01/14 11:12:22;;;;;;;42.25;20.13;;;;;;;;;;4898691;29;20020;-74
2022/01/14 11:14:48;;;;;;;42.17;18.77;;;;;;;;;;4915785;29;20501;-75
2022/01/14 11:17:13;;;;;;;43.05;20.33;;;;;;;;;;4915936;29;20028;-74
2022/01/14 11:19:41;;;;;;;46.85;21.52;;;;;;;;;;4915915;29;20016;-74
2022/01/14 11:24:50;;;;;;;42.83;18.35;;;;;;;;;;4915928;29;20176;-74
2022/01/14 11:27:17;;;;;;;41.80;17.75;;;;;;;;;;4898858;29;20115;-75
2022/01/14 11:29:44;;;;;;;38.40;16.67;;;;;;;;;;4893928;29;20032;-75
2022/01/14 11:32:10;;;;;;;35.42;17.23;;;;;;;;;;4911813;29;20099;-74
2022/01/14 11:34:45;;;;;;;36.22;16.45;;;;;;;;;;4913573;29;20061;-75
2022/01/14 11:37:17;;;;;;;30.92;14.13;;;;;;;;;;4895473;29;20029;-74
2022/01/14 11:39:58;;;;;;;35.70;15.55;;;;;;;;;;4896845;29;20080;-74
2022/01/14 11:42:50;;;;;;;37.13;13.65;;;;;;;;;;4896752;29;20025;-74
2022/01/14 11:45:19;;;;;;;29.58;13.50;;;;;;;;;;4892945;29;20513;-74
2022/01/14 11:47:46;;;;;;;31.40;14.18;;;;;;;;;;4880762;29;20017;-74
2022/01/14 11:50:18;;;;;;;28.27;13.20;;;;;;;;;;4895727;29;20031;-74
2022/01/14 11:52:44;;;;;;;28.45;12.60;;;;;;;;;;4910318;29;20027;-75
2022/01/14 11:55:21;;;;;;;26.67;12.50;;;;;;;;;;4909198;29;20121;-75
2022/01/14 11:57:48;;;;;;;29.58;12.25;;;;;;;;;;4896742;29;20397;-74
2022/01/14 12:00:33;;;;;;;28.00;12.90;;;;;;;;;;4910146;29;20028;-74
2022/01/14 12:03:00;;;;;;;25.38;12.32;;;;;;;;;;4911574;29;20497;-75
2022/01/14 12:05:26;;;;;;;27.10;12.65;;;;;;;;;;4912529;29;20028;-75
2022/01/14 12:08:01;;;;;;;29.60;13.90;;;;;;;;;;4913621;29;20047;-74
2022/01/14 12:10:33;;;;;;;29.55;12.20;;;;;;;;;;4913421;29;20017;-74
2022/01/14 12:13:25;;;;;;;24.00;10.55;;;;;;;;;;4908608;29;20700;-74
2022/01/14 12:16:02;;;;;;;27.25;11.20;;;;;;;;;;4897253;29;20031;-74
2022/01/14 12:18:47;;;;;;;32.72;12.27;;;;;;;;;;4914990;29;20111;-74
2022/01/14 12:21:13;;;;;;;32.70;12.38;;;;;;;;;;4884266;29;20031;-74
2022/01/14 12:23:38;;;;;;;24.27;11.70;;;;;;;;;;4916544;29;20050;-74
2022/01/14 12:26:14;;;;;;;28.38;12.50;;;;;;;;;;4918221;29;20028;-74
2022/01/14 12:28:40;;;;;;;27.98;11.63;;;;;;;;;;4900802;29;20040;-75
2022/01/14 12:31:05;;;;;;;24.25;11.88;;;;;;;;;;4917536;29;20439;-74
2022/01/14 12:33:56;;;;;;;25.05;11.38;;;;;;;;;;4917115;29;20043;-74
2022/01/14 12:36:22;;;;;;;26.05;12.32;;;;;;;;;;4917446;29;20127;-74
2022/01/14 12:38:48;;;;;;;25.40;12.35;;;;;;;;;;4918684;29;20123;-74
2022/01/14 12:41:14;;;;;;;25.45;11.52;;;;;;;;;;4918768;29;20028;-74
2022/01/14 12:43:48;;;;;;;37.60;11.95;;;;;;;;;;4919208;29;20028;-74
2022/01/14 12:46:46;;;;;;;30.45;12.27;;;;;;;;;;4919397;29;20123;-74
2022/01/14 12:49:24;;;;;;;27.85;13.75;;;;;;;;;;4919015;29;20038;-74
2022/01/14 12:51:59;;;;;;;21.50;11.02;;;;;;;;;;4932804;29;20016;-74
2022/01/14 12:54:28;;;;;;;24.45;10.88;;;;;;;;;;4918520;29;20035;-74
2022/01/14 12:56:54;;;;;;;;;;;;;;;;;;4918788;29;20031;-74
2022/01/14 12:59:19;;;;;;;20.65;9.07;;;;;;;;;;4920569;29;19907;-74
2022/01/14 13:01:54;;;;;;;23.58;10.52;;;;;;;;;;4918653;29;20405;-74
2022/01/14 13:04:20;;;;;;;23.48;10.90;;;;;;;;;;4917671;29;20446;-74
2022/01/14 13:06:53;;;;;;;23.17;10.40;;;;;;;;;;4917610;29;20036;-74
2022/01/14 13:09:22;;;;;;;22.10;8.82;;;;;;;;;;4918013;29;20024;-74
2022/01/14 13:11:53;;;;;;;21.85;11.23;;;;;;;;;;4918079;29;20020;-74
2022/01/14 13:14:26;;;;;;;23.65;10.43;;;;;;;;;;4918064;29;20017;-74
2022/01/14 13:16:51;;;;;;;22.48;11.35;;;;;;;;;;4918663;29;20016;-74
2022/01/14 13:19:20;;;;;;;22.25;10.57;;;;;;;;;;4920681;29;20103;-74
2022/01/14 13:21:45;;;;;;;22.42;9.27;;;;;;;;;;4923561;29;20116;-74
2022/01/14 13:24:17;;;;;;;21.88;10.05;;;;;;;;;;4932379;29;20072;-74
2022/01/14 13:26:42;;;;;;;20.63;9.77;;;;;;;;;;4923421;29;20051;-74
2022/01/14 13:29:08;;;;;;;21.23;8.75;;;;;;;;;;4921376;29;20020;-74
2022/01/14 13:31:33;;;;;;;21.98;10.23;;;;;;;;;;4904438;29;20027;-74
2022/01/14 13:33:58;;;;;;;24.05;10.35;;;;;;;;;;4903358;29;20029;-74
2022/01/14 13:36:23;;;;;;;20.05;9.05;;;;;;;;;;4900997;29;20031;-74
2022/01/14 13:39:06;;;;;;;23.77;10.32;;;;;;;;;;4917997;29;20036;-74
2022/01/14 13:41:31;;;;;;;21.55;10.50;;;;;;;;;;4917855;29;20021;-74
2022/01/14 13:44:00;;;;;;;20.15;8.80;;;;;;;;;;4918662;29;20557;-74
2022/01/14 13:46:32;;;;;;;23.08;9.40;;;;;;;;;;4901241;29;20115;-74
2022/01/14 13:48:57;;;;;;;19.17;9.20;;;;;;;;;;4918898;29;20084;-74
2022/01/14 13:51:24;;;;;;;20.52;8.23;;;;;;;;;;4918111;29;20028;-75
2022/01/14 13:53:50;;;;;;;25.40;10.02;;;;;;;;;;4900262;29;20070;-74
2022/01/14 13:56:17;;;;;;;24.42;10.73;;;;;;;;;;4900543;29;20051;-74
2022/01/14 13:58:46;;;;;;;20.88;9.75;;;;;;;;;;4918311;29;20059;-74
2022/01/14 14:01:11;;;;;;;19.85;10.38;;;;;;;;;;4917853;29;20132;-75
2022/01/14 14:03:49;;;;;;;24.58;9.88;;;;;;;;;;4901458;29;20072;-75
2022/01/14 14:06:20;;;;;;;22.52;10.63;;;;;;;;;;4901169;29;20052;-75
2022/01/14 14:16:55;;;;;;;20.80;9.95;;;;;;;;;;4912782;29;20031;-74
2022/01/14 14:19:20;;;;;;;24.63;11.00;;;;;;;;;;4914877;29;20036;-74
2022/01/14 14:22:03;;;;;;;22.98;9.20;;;;;;;;;;4897310;29;20039;-74
2022/01/14 14:24:29;;;;;;;23.83;10.73;;;;;;;;;;4908862;29;20032;-74
2022/01/14 14:27:07;;;;;;;25.05;11.35;;;;;;;;;;4915730;29;20085;-75
2022/01/14 14:29:33;;;;;;;22.92;10.02;;;;;;;;;;4915067;29;20034;-74
2022/01/14 14:32:13;;;;;;;22.73;10.27;;;;;;;;;;4897824;29;20028;-74
2022/01/14 14:34:38;;;;;;;23.33;10.52;;;;;;;;;;4915979;29;20040;-74
2022/01/14 14:37:04;;;;;;;23.23;10.85;;;;;;;;;;4916189;29;20031;-75
2022/01/14 14:39:29;;;;;;;21.55;10.85;;;;;;;;;;4916794;29;20032;-74
2022/01/14 14:41:54;;;;;;;21.27;10.52;;;;;;;;;;4916251;29;20048;-74
2022/01/14 14:44:19;;;;;;;26.65;11.05;;;;;;;;;;4906852;29;20028;-74
2022/01/14 14:46:44;;;;;;;23.83;10.68;;;;;;;;;;4913792;29;20036;-75
2022/01/14 14:49:10;;;;;;;24.88;11.18;;;;;;;;;;4914407;29;20020;-74
2022/01/14 14:51:35;;;;;;;21.52;10.25;;;;;;;;;;4913073;29;20466;-74
2022/01/14 14:54:00;;;;;;;25.60;11.10;;;;;;;;;;4897146;29;20099;-74